This is the latest recevied weather packets stored in our database for station/object DC7RY. If no packets are shown the sender has not sent any weather packets the latest 10 day(s).
| Time | Temp. | Humidity | Pressure | Rain* | Wind** | Luminosity | Snow |
|---|---|---|---|---|---|---|---|
| 1776947429 | 17.78° C | 22% | 1019.2 hPa | 0 mm | - | 162 W/m² | - |
| 1776946821 | 17.78° C | 22% | 1019.3 hPa | 0 mm | - | 202 W/m² | - |
| 1776946229 | 17.78° C | 23% | 1019.4 hPa | 0 mm | - | 102 W/m² | - |
| 1776945621 | 17.78° C | 21% | 1019.5 hPa | 0 mm | - | 91 W/m² | - |
| 1776945029 | 17.22° C | 23% | 1019.7 hPa | 0 mm | - | 156 W/m² | - |
| 1776944421 | 17.22° C | 23% | 1019.9 hPa | 0 mm | - | 75 W/m² | - |
| 1776943829 | 17.22° C | 24% | 1020 hPa | 0 mm | - | 148 W/m² | - |
| 1776943221 | 16.67° C | 25% | 1020 hPa | 0 mm | - | 141 W/m² | - |
| 1776942629 | 16.67° C | 26% | 1020.2 hPa | 0 mm | - | 223 W/m² | - |
| 1776942021 | 16.67° C | 26% | 1020.2 hPa | 0 mm | - | 362 W/m² | - |
| 1776941429 | 16.11° C | 27% | 1020.4 hPa | 0 mm | - | 361 W/m² | - |
| 1776940821 | 16.11° C | 27% | 1020.6 hPa | 0 mm | - | 348 W/m² | - |
| 1776940229 | 15.56° C | 28% | 1020.8 hPa | 0 mm | - | 331 W/m² | - |
| 1776939621 | 15° C | 35% | - | 0 mm | - | 341 W/m² | - |
| 1776939029 | 14.44° C | 37% | - | 0 mm | - | 251 W/m² | - |
| 1776938421 | 14.44° C | 32% | 1020.9 hPa | 0 mm | - | 213 W/m² | - |
| 1776937829 | 13.89° C | 35% | 1020.9 hPa | 0 mm | - | 203 W/m² | - |
| 1776937221 | 13.89° C | 38% | - | 0 mm | - | 51 W/m² | - |
| 1776936629 | 13.33° C | 39% | - | 0 mm | - | 93 W/m² | - |
| 1776936021 | 12.78° C | 38% | - | 0 mm | - | 133 W/m² | - |
| 1776935429 | 12.22° C | 39% | 1021.5 hPa | 0 mm | - | 138 W/m² | - |
| 1776934821 | 12.22° C | 45% | 1021.5 hPa | 0 mm | - | 78 W/m² | - |
| 1776934229 | 11.67° C | 45% | 1021.5 hPa | 0 mm | - | 68 W/m² | - |
| 1776933621 | 11.11° C | 48% | - | 0 mm | - | 48 W/m² | - |
| 1776933029 | 10.56° C | 50% | 1021.5 hPa | 0 mm | - | 42 W/m² | - |
* Rain latest hour (hover to see other rain measurements)
** Current wind speed in m/s (hover to see current wind gust speed)